Penkridge, United Kingdom
Current Conditions -  °F | °C
As of 9:50 AM on Sunday 23 Nov 2014 (Local Time) from EGOS Reporting Station
Overcast Overcast  
Wind Chill:   Ceiling: 13000
Heat Index:   Visibility: 6mi
Dew Point:   Wind: 8mph
Humidity: 87%   Direction: 290°WNW
Pressure: 30.06"   Gusts: NA
Location:  52.73°N, 2.12°W
Report Text: EGOS 230950Z AUTO 29007KT 9999 OVC130/// 08/06 Q1018
Loading
Personal Weather Stations






























Interactive Weather Map New forecast layout! Learn more

10-Day Weather Forecast

Advertisements
Track Severe Weather on mobile